createdAt,value
2023-04-16T00:00:11.287Z,61777.50
2023-04-16T00:05:15.080Z,61769.19
2023-04-16T00:10:20.700Z,61747.50
2023-04-16T00:15:25.719Z,61785.81
2023-04-16T00:20:28.606Z,61764.94
2023-04-16T00:25:32.969Z,61771.19
2023-04-16T00:30:36.159Z,61769.66
2023-04-16T00:35:40.327Z,61730.22
2023-04-16T00:40:44.836Z,61723.47
2023-04-16T00:45:47.669Z,61753.50
2023-04-16T00:50:50.921Z,61743.66
2023-04-16T00:55:57.190Z,61775.78
2023-04-16T01:01:02.527Z,61781.56
2023-04-16T01:06:07.690Z,61732.28
2023-04-16T01:11:13.336Z,61765.59
2023-04-16T01:16:16.126Z,61793.25
2023-04-16T01:21:24.508Z,61760.47
2023-04-16T01:26:27.296Z,61775.69
2023-04-16T01:31:30.975Z,61762.72
2023-04-16T01:36:35.060Z,61793.94
2023-04-16T01:41:40.702Z,61777.81
2023-04-16T01:46:44.802Z,61757.06
2023-04-16T01:51:50.239Z,61802.78
2023-04-16T01:57:11.266Z,61761.75
2023-04-16T02:02:32.199Z,61787.75
2023-04-16T02:07:37.679Z,61785.75
2023-04-16T02:12:41.391Z,61731.59
2023-04-16T02:17:44.072Z,61767.47
2023-04-16T02:22:50.376Z,61770.06
2023-04-16T02:28:12.764Z,61771.59
2023-04-16T02:33:18.174Z,61780.97
2023-04-16T02:38:23.642Z,61774.78
2023-04-16T02:43:27.302Z,61788.81
2023-04-16T02:48:31.060Z,61764.88
2023-04-16T02:53:58.021Z,61768.06
2023-04-16T02:59:02.885Z,61762.88
2023-04-16T03:04:26.337Z,61797.66
2023-04-16T03:09:30.629Z,61777.44
2023-04-16T03:14:35.387Z,61797.59
2023-04-16T03:19:38.388Z,61790.28
2023-04-16T03:24:42.590Z,61774.63
2023-04-16T03:29:47.322Z,61784.84
2023-04-16T03:34:50.158Z,61800.41
2023-04-16T03:39:54.337Z,61787.53
2023-04-16T03:44:57.543Z,61811.94
2023-04-16T03:50:00.507Z,61808.34
2023-04-16T03:55:07.027Z,61774.56
2023-04-16T04:00:11.526Z,61809.41
2023-04-16T04:05:14.364Z,61788.19
2023-04-16T04:10:18.416Z,61798.13
2023-04-16T04:15:23.258Z,61783.09
2023-04-16T04:20:26.432Z,61794.47
2023-04-16T04:25:31.830Z,61792.41
2023-04-16T04:30:38.605Z,61792.41
2023-04-16T04:35:41.384Z,61783.00
2023-04-16T04:40:45.739Z,61813.16
2023-04-16T04:45:49.404Z,61821.53
2023-04-16T04:50:55.391Z,61799.72
2023-04-16T04:56:11.094Z,61793.13
2023-04-16T05:01:15.741Z,61802.97
2023-04-16T05:06:19.515Z,61843.53
2023-04-16T05:11:24.071Z,61807.28
2023-04-16T05:16:26.765Z,61812.59
2023-04-16T05:21:29.713Z,61764.22
2023-04-16T05:26:34.836Z,61836.94
2023-04-16T05:31:38.832Z,61845.97
2023-04-16T05:36:41.814Z,61835.06
2023-04-16T05:42:07.075Z,61851.22
2023-04-16T05:47:10.367Z,61847.28
2023-04-16T05:52:14.348Z,61847.31
2023-04-16T05:57:18.833Z,61866.03
2023-04-16T06:02:21.619Z,61855.66
2023-04-16T06:07:24.432Z,61819.72
2023-04-16T06:12:28.577Z,61827.38
2023-04-16T06:17:31.254Z,61844.66
2023-04-16T06:22:33.893Z,61870.41
2023-04-16T06:27:38.036Z,61848.91
2023-04-16T06:32:41.256Z,61902.09
2023-04-16T06:37:44.105Z,61863.72
2023-04-16T06:42:48.060Z,61897.25
2023-04-16T06:47:51.171Z,61920.59
2023-04-16T06:52:54.311Z,61891.41
2023-04-16T06:57:59.943Z,61874.41
2023-04-16T07:03:03.541Z,61894.59
2023-04-16T07:08:07.316Z,61958.56
2023-04-16T07:13:13.792Z,61950.25
2023-04-16T07:18:20.257Z,61993.31
2023-04-16T07:23:23.531Z,61938.16
2023-04-16T07:28:28.886Z,62019.44
2023-04-16T07:33:32.312Z,62006.13
2023-04-16T07:38:35.831Z,62047.59
2023-04-16T07:43:44.441Z,62017.72
2023-04-16T07:48:47.742Z,62089.56
2023-04-16T07:53:50.303Z,62086.47
2023-04-16T07:59:02.831Z,62132.50
2023-04-16T08:04:14.450Z,62186.28
2023-04-16T08:09:18.622Z,62163.84
2023-04-16T08:14:23.431Z,62212.13
2023-04-16T08:19:26.624Z,62209.69
2023-04-16T08:24:29.511Z,62229.88
2023-04-16T08:29:34.768Z,62201.91
2023-04-16T08:34:38.278Z,62257.94
2023-04-16T08:39:42.529Z,62284.47
2023-04-16T08:44:59.554Z,62380.72
2023-04-16T08:50:06.194Z,62504.97
2023-04-16T08:55:14.960Z,62470.69
2023-04-16T09:00:20.827Z,62492.44
2023-04-16T09:05:25.920Z,62478.91
2023-04-16T09:10:30.754Z,62473.09
2023-04-16T09:15:37.220Z,62572.00
2023-04-16T09:20:40.889Z,62441.53
2023-04-16T09:25:46.218Z,62401.47
2023-04-16T09:30:50.669Z,62357.66
2023-04-16T09:35:55.137Z,62353.69
2023-04-16T09:41:07.911Z,62391.66
2023-04-16T09:46:15.713Z,62361.34
2023-04-16T09:51:19.328Z,62460.00
2023-04-16T09:56:27.196Z,62457.03
2023-04-16T10:01:32.868Z,62604.19
2023-04-16T10:06:35.972Z,62686.72
2023-04-16T10:11:40.661Z,62759.25
2023-04-16T10:16:45.448Z,62763.66
2023-04-16T10:21:49.997Z,62933.59
2023-04-16T10:26:53.713Z,62814.25
2023-04-16T10:31:59.338Z,62754.75
2023-04-16T10:37:02.228Z,62888.75
2023-04-16T10:42:11.670Z,62975.50
2023-04-16T10:47:18.794Z,62994.78
2023-04-16T10:52:22.529Z,63267.00
2023-04-16T10:57:30.653Z,63050.31
2023-04-16T11:02:35.212Z,62945.72
2023-04-16T11:07:39.473Z,63020.34
2023-04-16T11:12:48.324Z,62997.97
2023-04-16T11:17:57.765Z,62983.72
2023-04-16T11:23:01.000Z,63058.69
2023-04-16T11:28:06.484Z,63041.81
2023-04-16T11:33:34.592Z,63092.91
2023-04-16T11:38:38.718Z,63026.03
2023-04-16T11:43:41.909Z,62942.09
2023-04-16T11:48:54.142Z,62801.06
2023-04-16T11:53:58.800Z,62793.13
2023-04-16T11:59:13.235Z,62745.94
2023-04-16T12:04:20.845Z,62699.94
2023-04-16T12:09:27.398Z,62799.66
2023-04-16T12:14:33.865Z,62885.28
2023-04-16T12:19:57.333Z,62947.38
2023-04-16T12:25:03.012Z,62991.75
2023-04-16T12:30:08.273Z,62933.69
2023-04-16T12:35:14.239Z,62794.63
2023-04-16T12:40:24.639Z,62737.78
2023-04-16T12:45:29.274Z,62630.91
2023-04-16T12:50:35.308Z,62678.53
2023-04-16T12:55:38.117Z,62672.78
2023-04-16T13:00:41.471Z,62710.63
2023-04-16T13:05:47.845Z,62846.13
2023-04-16T13:10:50.717Z,62761.25
2023-04-16T13:15:53.735Z,62739.75
2023-04-16T13:20:59.334Z,62597.84
2023-04-16T13:26:04.280Z,62517.19
2023-04-16T13:31:08.355Z,62399.44
2023-04-16T13:36:16.388Z,62320.84
2023-04-16T13:41:20.382Z,62315.84
2023-04-16T13:46:23.380Z,62296.34
2023-04-16T13:51:29.213Z,62297.94
2023-04-16T13:56:33.018Z,62310.53
2023-04-16T14:01:39.946Z,62289.03
2023-04-16T14:06:46.473Z,62281.63
2023-04-16T14:11:50.202Z,62282.47
2023-04-16T14:16:55.439Z,62260.63
2023-04-16T14:21:59.409Z,62253.16
2023-04-16T14:27:01.995Z,62214.25
2023-04-16T14:32:05.114Z,62210.69
2023-04-16T14:37:09.134Z,62190.41
2023-04-16T14:42:11.788Z,62122.56
2023-04-16T14:47:14.446Z,62158.19
2023-04-16T14:52:18.413Z,62164.63
2023-04-16T14:57:21.003Z,62184.00
2023-04-16T15:02:23.870Z,62185.72
2023-04-16T15:07:27.985Z,62166.34
2023-04-16T15:12:30.815Z,62174.00
2023-04-16T15:17:33.629Z,62180.28
2023-04-16T15:22:38.115Z,62148.22
2023-04-16T15:27:40.814Z,62140.72
2023-04-16T15:32:44.849Z,62145.44
2023-04-16T15:37:48.973Z,62095.00
2023-04-16T15:42:53.580Z,62102.56
2023-04-16T15:47:56.498Z,62107.06
2023-04-16T15:53:00.535Z,62081.13
2023-04-16T15:58:03.207Z,62062.44
2023-04-16T16:03:06.146Z,62115.97
2023-04-16T16:08:10.304Z,62105.16
2023-04-16T16:13:18.108Z,62119.59
2023-04-16T16:18:22.001Z,62123.75
2023-04-16T16:23:27.110Z,62139.16
2023-04-16T16:28:29.727Z,62193.28
2023-04-16T16:33:32.543Z,62192.38
2023-04-16T16:38:36.453Z,62185.81
2023-04-16T16:43:39.044Z,62190.63
2023-04-16T16:48:41.616Z,62223.34
2023-04-16T16:53:46.290Z,62300.56
2023-04-16T16:58:49.053Z,62259.03
2023-04-16T17:03:51.929Z,62229.75
2023-04-16T17:08:56.085Z,62174.22
2023-04-16T17:13:58.734Z,62143.84
2023-04-16T17:19:01.390Z,62110.75
2023-04-16T17:24:05.474Z,62121.09
2023-04-16T17:29:08.094Z,62139.44
2023-04-16T17:34:10.836Z,62145.25
2023-04-16T17:39:15.014Z,62131.66
2023-04-16T17:44:17.551Z,62129.16
2023-04-16T17:49:20.232Z,62141.31
2023-04-16T17:54:24.441Z,62198.00
2023-04-16T17:59:27.434Z,62100.47
2023-04-16T18:04:30.398Z,62076.00
2023-04-16T18:09:34.411Z,62064.09
2023-04-16T18:14:38.784Z,62047.66
2023-04-16T18:19:43.700Z,62043.06
2023-04-16T18:24:47.961Z,62017.66
2023-04-16T18:29:51.405Z,62026.00
2023-04-16T18:34:54.095Z,61958.56
2023-04-16T18:39:58.294Z,62005.63
2023-04-16T18:45:02.018Z,61953.41
2023-04-16T18:50:05.461Z,61967.34
2023-04-16T18:55:10.013Z,61948.78
2023-04-16T19:00:15.395Z,61981.16
2023-04-16T19:05:18.818Z,61969.22
2023-04-16T19:10:23.345Z,61980.00
2023-04-16T19:15:31.649Z,61922.22
2023-04-16T19:20:37.841Z,61925.91
2023-04-16T19:25:42.496Z,61888.03
2023-04-16T19:30:46.684Z,61897.06
2023-04-16T19:35:49.624Z,61856.25
2023-04-16T19:40:56.374Z,61879.50
2023-04-16T19:45:59.348Z,61869.56
2023-04-16T19:51:03.971Z,61883.91
2023-04-16T19:56:08.159Z,61892.06
2023-04-16T20:01:11.179Z,61914.31
2023-04-16T20:06:14.128Z,61921.34
2023-04-16T20:11:18.729Z,61896.72
2023-04-16T20:16:24.528Z,61912.53
2023-04-16T20:21:27.958Z,61889.09
2023-04-16T20:26:34.042Z,61933.56
2023-04-16T20:31:36.900Z,61934.81
2023-04-16T20:36:39.599Z,61947.97
2023-04-16T20:41:44.443Z,61949.03
2023-04-16T20:46:49.585Z,61926.69
2023-04-16T20:51:52.422Z,61912.06
2023-04-16T20:56:57.011Z,61932.16
2023-04-16T21:01:59.764Z,61918.44
2023-04-16T21:07:03.855Z,61907.94
2023-04-16T21:12:08.471Z,61921.06
2023-04-16T21:17:11.156Z,61869.50
2023-04-16T21:22:13.756Z,61854.97
2023-04-16T21:27:17.820Z,61859.53
2023-04-16T21:32:20.695Z,61836.75
2023-04-16T21:37:23.441Z,61846.66
2023-04-16T21:42:27.615Z,61862.84
2023-04-16T21:47:30.356Z,61826.38
2023-04-16T21:52:33.804Z,61848.09
2023-04-16T21:57:39.706Z,61853.16
2023-04-16T22:02:43.334Z,61809.41
2023-04-16T22:07:46.200Z,61841.41
2023-04-16T22:12:54.965Z,61821.66
2023-04-16T22:17:57.657Z,61817.66
2023-04-16T22:23:00.551Z,61835.88
2023-04-16T22:28:04.678Z,61843.59
2023-04-16T22:33:08.452Z,61843.13
2023-04-16T22:38:11.355Z,61806.34
2023-04-16T22:43:16.119Z,61837.81
2023-04-16T22:48:18.805Z,61826.31
2023-04-16T22:53:22.513Z,61813.69
2023-04-16T22:58:26.624Z,61844.84
2023-04-16T23:03:29.474Z,61837.94
2023-04-16T23:08:32.190Z,61816.66
2023-04-16T23:13:36.222Z,61804.22
2023-04-16T23:18:38.864Z,61790.72
2023-04-16T23:23:41.499Z,61822.97
2023-04-16T23:28:45.456Z,61795.84
2023-04-16T23:33:48.067Z,61823.22
2023-04-16T23:38:50.730Z,61823.22
2023-04-16T23:43:54.693Z,61778.03
2023-04-16T23:48:58.406Z,61776.44
2023-04-16T23:54:01.067Z,61804.91
2023-04-16T23:59:05.069Z,61805.91
